»·PEaware :: USC243 KMCC-KBPI

USC243 :: KMCC-KBPI

FLIGHT INFORMATION

Flight Status: Arrived
Operator: Unknown
More flights by this operator :: More flights under this callsign
Pilot: Andy P. (22680)
Aircraft: GATES LEARJET LEARJET 35/36
(LJ35)
More flights by this aircraft type
Origin: KMCC McClellan
United States
Destination: KBPI Big Piney-Marbleton
United States
More flights between these airports :: More routes between these airports
Route: FMG J32 MLD BPI
File this flight plan on PilotEdge
Remarks:
Altitude:
(Current/Filed)
39,000ft
Speed:
(Current/Filed)
465kts
Departed: 26-Feb-19 08:55 AM
Arrived: 26-Feb-19 10:14 AM
Distance/Time
Traveled:
565nm/1:19
Distance/Time
To Go:
Arrived

Flight Plot

Page will automatically refresh every two minutes.

Flight plan parsing failed; only flown route is shown


Map Options




Map Legend


Flown Route
Filed Route
Departure Airport
Arrival Airport
Navaid (VOR, NDB)
Fix

Horizontal Profiles

Position Reports

Time Latitude Longitude Heading Altitude Ground
Speed
26-Feb-19 08:32 38.657145 -121.393179 91 77ft 0kts
26-Feb-19 08:33 38.657145 -121.393179 91 77ft 0kts
26-Feb-19 08:34 38.657145 -121.393179 91 77ft 0kts
26-Feb-19 08:35 38.657145 -121.393179 91 77ft 0kts
26-Feb-19 08:36 38.657145 -121.393179 91 77ft 0kts
26-Feb-19 08:37 38.657145 -121.393179 91 77ft 0kts
26-Feb-19 08:38 38.657145 -121.393179 91 77ft 0kts
26-Feb-19 08:39 38.657145 -121.393179 91 77ft 0kts
26-Feb-19 08:40 38.657145 -121.393179 91 77ft 0kts
26-Feb-19 08:41 38.657145 -121.393179 91 77ft 0kts
26-Feb-19 08:42 38.657145 -121.393179 91 77ft 0kts
26-Feb-19 08:43 38.657145 -121.393179 91 77ft 0kts
26-Feb-19 08:44 38.657145 -121.393179 91 77ft 0kts
26-Feb-19 08:45 38.657145 -121.393179 91 77ft 0kts
26-Feb-19 08:46 38.657145 -121.393179 91 77ft 0kts
26-Feb-19 08:47 38.657153 -121.393133 69 77ft 2kts
26-Feb-19 08:48 38.659122 -121.396751 299 77ft 20kts
26-Feb-19 08:49 38.664255 -121.397874 0 77ft 25kts
26-Feb-19 08:50 38.672108 -121.397865 0 77ft 27kts
26-Feb-19 08:51 38.679396 -121.397867 2 77ft 20kts
26-Feb-19 08:52 38.682087 -121.399416 271 77ft 2kts
26-Feb-19 08:53 38.682087 -121.399428 271 77ft 0kts
26-Feb-19 08:54 38.670893 -121.400584 180 100ft 155kts
26-Feb-19 08:55 38.628319 -121.374729 100 5331ft 216kts
26-Feb-19 08:56 38.681161 -121.311362 16 8559ft 299kts
26-Feb-19 08:57 38.747981 -121.247266 62 9142ft 333kts
26-Feb-19 08:58 38.798118 -121.135816 56 13454ft 371kts
26-Feb-19 08:59 38.859053 -121.021976 61 17434ft 396kts
26-Feb-19 09:00 38.918099 -120.903802 55 21809ft 391kts
26-Feb-19 09:01 38.978672 -120.783069 55 24162ft 436kts
26-Feb-19 09:02 39.049033 -120.641782 55 25390ft 497kts
26-Feb-19 09:03 39.126323 -120.485785 55 26863ft 529kts
26-Feb-19 09:04 39.206055 -120.324058 55 28576ft 541kts
26-Feb-19 09:05 39.286310 -120.160440 55 30677ft 536kts
26-Feb-19 09:06 39.365224 -119.998740 54 32770ft 527kts
26-Feb-19 09:07 39.442203 -119.840213 54 34844ft 514kts
26-Feb-19 09:08 39.517678 -119.684051 54 36319ft 512kts
26-Feb-19 09:09 39.598213 -119.533167 48 37652ft 507kts
26-Feb-19 09:10 39.681549 -119.385911 49 38784ft 507kts
26-Feb-19 09:11 39.765619 -119.234684 50 38936ft 519kts
26-Feb-19 09:12 39.849937 -119.081853 50 38938ft 522kts
26-Feb-19 09:13 39.934571 -118.927646 50 38939ft 525kts
26-Feb-19 09:14 40.019321 -118.772446 50 38940ft 525kts
26-Feb-19 09:15 40.103421 -118.616293 54 38939ft 525kts
26-Feb-19 09:16 40.162821 -118.441442 68 38943ft 528kts
26-Feb-19 09:17 40.212370 -118.261025 68 38958ft 526kts
26-Feb-19 09:18 40.261484 -118.080928 69 38986ft 525kts
26-Feb-19 09:19 40.310164 -117.901099 69 39018ft 523kts
26-Feb-19 09:20 40.358587 -117.720938 69 39035ft 522kts
26-Feb-19 09:21 40.406445 -117.541578 69 39035ft 522kts
26-Feb-19 09:22 40.454158 -117.361455 69 39030ft 522kts
26-Feb-19 09:23 40.501643 -117.180875 69 38995ft 523kts
26-Feb-19 09:24 40.548919 -116.999769 69 38981ft 526kts
26-Feb-19 09:25 40.608093 -116.823787 60 38976ft 527kts
26-Feb-19 09:27 40.675358 -116.651105 60 38977ft 530kts
26-Feb-19 09:28 40.742585 -116.478119 60 38981ft 531kts
26-Feb-19 09:29 40.809725 -116.304464 60 38988ft 532kts
26-Feb-19 09:30 40.876712 -116.130204 60 38991ft 532kts
26-Feb-19 09:31 40.943516 -115.955384 60 38991ft 532kts
26-Feb-19 09:32 41.010001 -115.780350 60 38991ft 532kts
26-Feb-19 09:33 41.076246 -115.604895 60 38991ft 532kts
26-Feb-19 09:34 41.142160 -115.429255 61 38991ft 532kts
26-Feb-19 09:35 41.207983 -115.252783 61 38991ft 532kts
26-Feb-19 09:36 41.273429 -115.076245 61 38991ft 533kts
26-Feb-19 09:37 41.338528 -114.899558 61 38991ft 533kts
26-Feb-19 09:38 41.403691 -114.721596 61 38991ft 533kts
26-Feb-19 09:39 41.468461 -114.543599 61 38991ft 534kts
26-Feb-19 09:40 41.532918 -114.365353 61 38991ft 535kts
26-Feb-19 09:41 41.597397 -114.185920 62 38988ft 535kts
26-Feb-19 09:42 41.661486 -114.006425 62 38981ft 536kts
26-Feb-19 09:43 41.725578 -113.825777 62 38981ft 537kts
26-Feb-19 09:44 41.789256 -113.645132 62 38981ft 537kts
26-Feb-19 09:45 41.852698 -113.463993 62 38982ft 537kts
26-Feb-19 09:46 41.915997 -113.282066 62 38982ft 536kts
26-Feb-19 09:46 41.968303 -113.130831 62 38982ft 536kts
26-Feb-19 09:48 42.041317 -112.918337 62 38982ft 536kts
26-Feb-19 09:49 42.103496 -112.736072 62 38982ft 536kts
26-Feb-19 09:49 42.155199 -112.583592 62 38982ft 537kts
26-Feb-19 09:50 42.208993 -112.395998 73 39004ft 540kts
26-Feb-19 09:52 42.248849 -112.166343 75 36849ft 535kts
26-Feb-19 09:52 42.276732 -112.002231 75 34524ft 538kts
26-Feb-19 09:53 42.309426 -111.807693 76 31891ft 529kts
26-Feb-19 09:54 42.341493 -111.614738 77 29258ft 523kts
26-Feb-19 09:55 42.372878 -111.423763 77 26668ft 514kts
26-Feb-19 09:56 42.403333 -111.236375 78 24126ft 504kts
26-Feb-19 09:57 42.413155 -111.056338 90 23241ft 463kts
26-Feb-19 09:58 42.417960 -110.886863 89 22136ft 444kts
26-Feb-19 09:59 42.422899 -110.722626 89 21003ft 434kts
26-Feb-19 10:00 42.427962 -110.549603 89 18465ft 453kts
26-Feb-19 10:01 42.432604 -110.384041 89 15158ft 423kts
26-Feb-19 10:02 42.436433 -110.240709 89 14031ft 344kts
26-Feb-19 10:03 42.439525 -110.118259 90 14037ft 319kts
26-Feb-19 10:04 42.442422 -109.998085 90 13184ft 320kts
26-Feb-19 10:05 42.420182 -109.885557 117 11544ft 298kts
26-Feb-19 10:06 42.361148 -109.854988 222 9734ft 232kts
26-Feb-19 10:07 42.373654 -109.917239 328 9122ft 198kts
26-Feb-19 10:08 42.420921 -109.952046 322 9058ft 189kts
26-Feb-19 10:09 42.462853 -109.994061 316 8578ft 190kts
26-Feb-19 10:10 42.500748 -110.037365 317 8403ft 160kts
26-Feb-19 10:11 42.536635 -110.069690 326 7802ft 153kts
26-Feb-19 10:12 42.571761 -110.099680 324 7126ft 144kts
26-Feb-19 10:13 42.591509 -110.116704 330 6993ft 19kts
26-Feb-19 10:14 42.591065 -110.116286 146 6993ft 27kts
26-Feb-19 10:15 42.583023 -110.109398 147 6993ft 36kts
26-Feb-19 10:16 42.579233 -110.105171 61 6993ft 3kts
26-Feb-19 10:17 42.578610 -110.103880 141 6993ft 0kts
26-Feb-19 10:18 42.578610 -110.103880 141 6993ft 0kts
26-Feb-19 10:19 42.578610 -110.103880 141 6993ft 0kts
26-Feb-19 10:20 42.578610 -110.103880 141 6993ft 0kts
26-Feb-19 10:21 42.578610 -110.103880 141 6993ft 0kts
26-Feb-19 10:22 42.578610 -110.103880 141 6993ft 0kts
26-Feb-19 10:23 42.578610 -110.103880 141 6993ft 0kts
26-Feb-19 10:24 42.578610 -110.103880 141 6993ft 0kts
26-Feb-19 10:25 42.578610 -110.103880 141 6993ft 0kts
26-Feb-19 10:26 42.578610 -110.103880 141 6993ft 0kts
26-Feb-19 10:27 42.578610 -110.103880 141 6993ft 0kts

Navigation Log

Ident Type
Flight plan parsing failed, navigation log unavailable